createdAt,value
2018-02-15T00:00:33.819Z,0
2018-02-15T00:01:42.643Z,0
2018-02-15T00:02:51.468Z,0
2018-02-15T00:04:00.595Z,0
2018-02-15T00:05:09.693Z,0
2018-02-15T00:06:18.520Z,0
2018-02-15T00:07:27.344Z,0
2018-02-15T00:08:36.169Z,0
2018-02-15T00:09:45.390Z,0
2018-02-15T00:10:54.211Z,0
2018-02-15T00:12:03.036Z,0
2018-02-15T00:13:11.860Z,0
2018-02-15T00:14:20.687Z,0
2018-02-15T00:15:29.520Z,0
2018-02-15T00:16:38.339Z,0
2018-02-15T00:17:47.161Z,0
2018-02-15T00:18:55.988Z,0
2018-02-15T00:20:04.813Z,0
2018-02-15T00:21:13.637Z,0
2018-02-15T00:22:22.460Z,0
2018-02-15T00:23:31.289Z,0
2018-02-15T00:24:40.109Z,0
2018-02-15T00:25:48.934Z,0
2018-02-15T00:26:58.009Z,0
2018-02-15T00:28:06.833Z,0
2018-02-15T00:29:15.660Z,0
2018-02-15T00:30:24.482Z,0
2018-02-15T00:31:33.309Z,0
2018-02-15T00:32:42.131Z,0
2018-02-15T00:33:50.957Z,0
2018-02-15T00:34:59.779Z,0
2018-02-15T00:36:08.603Z,0
2018-02-15T00:37:17.428Z,0
2018-02-15T00:38:26.554Z,0
2018-02-15T00:39:35.379Z,0
2018-02-15T00:40:44.209Z,0
2018-02-15T00:41:53.307Z,0
2018-02-15T00:43:02.132Z,0
2018-02-15T00:44:10.957Z,0
2018-02-15T00:45:19.786Z,0
2018-02-15T00:46:28.609Z,0
2018-02-15T00:47:37.435Z,0
2018-02-15T00:48:46.260Z,0
2018-02-15T00:49:55.137Z,0
2018-02-15T00:51:03.959Z,0
2018-02-15T00:52:12.785Z,0
2018-02-15T00:53:21.610Z,0
2018-02-15T00:54:30.435Z,0
2018-02-15T00:55:39.361Z,0
2018-02-15T00:56:48.185Z,0
2018-02-15T00:57:57.011Z,0
2018-02-15T00:59:05.837Z,0
2018-02-15T01:00:14.660Z,0
2018-02-15T01:01:23.484Z,0
2018-02-15T01:02:32.308Z,0
2018-02-15T01:03:41.136Z,0
2018-02-15T01:04:49.960Z,0
2018-02-15T01:05:58.788Z,0
2018-02-15T01:07:07.889Z,0
2018-02-15T01:08:16.713Z,0
2018-02-15T01:09:25.537Z,0
2018-02-15T01:10:34.365Z,0
2018-02-15T01:11:43.192Z,0
2018-02-15T01:12:52.167Z,0
2018-02-15T01:14:00.990Z,0
2018-02-15T01:15:09.814Z,0
2018-02-15T01:16:18.639Z,0
2018-02-15T01:17:27.752Z,0
2018-02-15T01:18:36.874Z,0
2018-02-15T01:19:45.700Z,0
2018-02-15T01:20:54.525Z,0
2018-02-15T01:22:03.349Z,0
2018-02-15T01:23:12.174Z,0
2018-02-15T01:24:21.148Z,0
2018-02-15T01:25:30.255Z,0
2018-02-15T01:26:39.081Z,0
2018-02-15T01:27:47.905Z,0
2018-02-15T01:28:56.731Z,0
2018-02-15T01:30:05.559Z,0
2018-02-15T01:31:14.656Z,0
2018-02-15T01:32:23.482Z,0
2018-02-15T01:33:32.306Z,0
2018-02-15T01:34:41.132Z,0
2018-02-15T01:35:49.957Z,0
2018-02-15T01:36:58.779Z,0
2018-02-15T01:38:07.880Z,0
2018-02-15T01:39:16.706Z,0
2018-02-15T01:40:25.529Z,0
2018-02-15T01:41:34.606Z,0
2018-02-15T01:42:43.431Z,0
2018-02-15T01:43:52.284Z,0
2018-02-15T01:45:01.081Z,0
2018-02-15T01:46:09.904Z,0
2018-02-15T01:47:19.038Z,0
2018-02-15T01:48:28.182Z,0
2018-02-15T01:49:37.007Z,0
2018-02-15T01:50:45.833Z,0
2018-02-15T01:51:54.657Z,0
2018-02-15T01:53:03.631Z,0
2018-02-15T01:54:12.456Z,0
2018-02-15T01:55:21.554Z,0
2018-02-15T01:56:30.381Z,0
2018-02-15T01:57:39.480Z,0
2018-02-15T01:58:48.455Z,0
2018-02-15T01:59:57.279Z,0
2018-02-15T02:01:06.105Z,0
2018-02-15T02:02:14.930Z,0
2018-02-15T02:03:23.756Z,0
2018-02-15T02:04:33.006Z,0
2018-02-15T02:05:41.836Z,0
2018-02-15T02:06:50.658Z,0
2018-02-15T02:07:59.485Z,0
2018-02-15T02:09:08.311Z,0
2018-02-15T02:10:17.288Z,0
2018-02-15T02:11:26.113Z,0
2018-02-15T02:12:34.938Z,0
2018-02-15T02:13:43.765Z,0
2018-02-15T02:14:52.588Z,0
2018-02-15T02:16:01.814Z,0
2018-02-15T02:17:10.641Z,0
2018-02-15T02:18:19.467Z,0
2018-02-15T02:19:28.291Z,0
2018-02-15T02:20:37.115Z,0
2018-02-15T02:21:45.942Z,0
2018-02-15T02:22:54.769Z,0
2018-02-15T02:24:03.593Z,0
2018-02-15T02:25:12.417Z,0
2018-02-15T02:26:21.294Z,0
2018-02-15T02:27:30.319Z,0
2018-02-15T02:28:39.148Z,0
2018-02-15T02:29:47.974Z,0
2018-02-15T02:30:57.075Z,0
2018-02-15T02:32:05.900Z,0
2018-02-15T02:33:14.823Z,0
2018-02-15T02:34:23.652Z,0
2018-02-15T02:35:32.755Z,0
2018-02-15T02:36:41.580Z,0
2018-02-15T02:37:50.407Z,0
2018-02-15T02:38:59.233Z,0
2018-02-15T02:40:08.336Z,0
2018-02-15T02:41:17.163Z,0
2018-02-15T02:42:26.000Z,0
2018-02-15T02:43:34.829Z,0
2018-02-15T02:44:43.651Z,0
2018-02-15T02:45:52.477Z,0
2018-02-15T02:47:01.301Z,0
2018-02-15T02:48:10.129Z,0
2018-02-15T02:49:18.953Z,0
2018-02-15T02:50:28.158Z,0
2018-02-15T02:51:36.993Z,0
2018-02-15T02:52:45.815Z,0
2018-02-15T02:53:54.641Z,0
2018-02-15T02:55:03.471Z,0
2018-02-15T02:56:12.292Z,0
2018-02-15T02:57:21.118Z,0
2018-02-15T02:58:29.943Z,0
2018-02-15T02:59:38.770Z,0
2018-02-15T03:00:47.596Z,0
2018-02-15T03:01:56.796Z,0
2018-02-15T03:03:05.621Z,0
2018-02-15T03:04:14.446Z,0
2018-02-15T03:05:23.271Z,0
2018-02-15T03:06:32.095Z,0
2018-02-15T03:07:41.019Z,0
2018-02-15T03:08:49.845Z,0
2018-02-15T03:09:58.670Z,0
2018-02-15T03:11:07.496Z,0
2018-02-15T03:12:16.327Z,0
2018-02-15T03:13:25.150Z,0
2018-02-15T03:14:33.976Z,0
2018-02-15T03:15:42.799Z,0
2018-02-15T03:16:51.626Z,0
2018-02-15T03:18:00.449Z,0
2018-02-15T03:19:09.573Z,0
2018-02-15T03:20:18.396Z,0
2018-02-15T03:21:27.222Z,0
2018-02-15T03:22:36.048Z,0
2018-02-15T03:23:44.872Z,0
2018-02-15T03:24:53.702Z,0
2018-02-15T03:26:03.073Z,0
2018-02-15T03:27:11.898Z,0
2018-02-15T03:28:20.724Z,0
2018-02-15T03:29:29.549Z,0
2018-02-15T03:30:38.531Z,0
2018-02-15T03:31:47.351Z,0
2018-02-15T03:32:56.177Z,0
2018-02-15T03:34:05.001Z,0
2018-02-15T03:35:13.830Z,0
2018-02-15T03:36:22.956Z,0
2018-02-15T03:37:31.781Z,0
2018-02-15T03:38:40.606Z,0
2018-02-15T03:39:49.433Z,0
2018-02-15T03:40:58.257Z,0
2018-02-15T03:42:07.083Z,0
2018-02-15T03:43:15.906Z,0
2018-02-15T03:44:24.732Z,0
2018-02-15T03:45:33.556Z,0
2018-02-15T03:46:42.382Z,0
2018-02-15T03:47:51.206Z,0
2018-02-15T03:49:00.033Z,0
2018-02-15T03:50:08.857Z,0
2018-02-15T03:51:17.684Z,0
2018-02-15T03:52:26.511Z,0
2018-02-15T03:53:35.388Z,0
2018-02-15T03:54:44.261Z,0
2018-02-15T03:55:53.362Z,0
2018-02-15T03:57:02.460Z,0
2018-02-15T03:58:11.284Z,0
2018-02-15T03:59:20.310Z,0
2018-02-15T04:00:29.138Z,0
2018-02-15T04:01:37.965Z,0
2018-02-15T04:02:46.788Z,0
2018-02-15T04:03:55.619Z,0
2018-02-15T04:05:04.743Z,0
2018-02-15T04:06:13.568Z,0
2018-02-15T04:07:22.392Z,0
2018-02-15T04:08:31.218Z,0
2018-02-15T04:09:40.042Z,0
2018-02-15T04:10:48.919Z,0
2018-02-15T04:11:57.744Z,0
2018-02-15T04:13:06.569Z,0
2018-02-15T04:14:15.395Z,0
2018-02-15T04:15:24.219Z,0
2018-02-15T04:16:33.044Z,0
2018-02-15T04:17:41.910Z,0
2018-02-15T04:18:50.692Z,0
2018-02-15T04:19:59.519Z,0
2018-02-15T04:21:08.344Z,0
2018-02-15T04:22:17.172Z,0
2018-02-15T04:23:25.998Z,0
2018-02-15T04:24:34.823Z,0
2018-02-15T04:25:43.647Z,0
2018-02-15T04:26:52.471Z,0
2018-02-15T04:28:01.295Z,0
2018-02-15T04:29:10.121Z,0
2018-02-15T04:30:18.951Z,0
2018-02-15T04:31:27.771Z,0
2018-02-15T04:32:36.600Z,0
2018-02-15T04:33:45.425Z,0
2018-02-15T04:34:54.252Z,0
2018-02-15T04:36:03.079Z,0
2018-02-15T04:37:11.904Z,0
2018-02-15T04:38:20.730Z,0
2018-02-15T04:39:29.706Z,0
2018-02-15T04:40:38.531Z,0
2018-02-15T04:41:47.355Z,0
2018-02-15T04:42:56.180Z,0
2018-02-15T04:44:05.006Z,0
2018-02-15T04:45:14.122Z,0
2018-02-15T04:46:22.948Z,0
2018-02-15T04:47:31.774Z,0
2018-02-15T04:48:40.598Z,0
2018-02-15T04:49:49.427Z,0
2018-02-15T04:50:58.250Z,0
2018-02-15T04:52:07.351Z,0
2018-02-15T04:53:16.176Z,0
2018-02-15T04:54:25.040Z,0
2018-02-15T04:55:33.827Z,0
2018-02-15T04:56:43.074Z,0
2018-02-15T04:57:51.898Z,0
2018-02-15T04:59:00.726Z,0
2018-02-15T05:00:09.824Z,0
2018-02-15T05:01:18.920Z,0
2018-02-15T05:02:27.745Z,0
2018-02-15T05:03:36.569Z,0
2018-02-15T05:04:45.394Z,0
2018-02-15T05:05:54.220Z,0
2018-02-15T05:07:03.044Z,0
2018-02-15T05:08:11.871Z,0
2018-02-15T05:09:20.699Z,0
2018-02-15T05:10:29.801Z,0
2018-02-15T05:11:38.678Z,0
2018-02-15T05:12:47.503Z,0
2018-02-15T05:13:56.379Z,0
2018-02-15T05:15:05.205Z,0
2018-02-15T05:16:14.304Z,0
2018-02-15T05:17:23.131Z,0
2018-02-15T05:18:31.957Z,0
2018-02-15T05:19:40.788Z,0
2018-02-15T05:20:49.611Z,0
2018-02-15T05:21:58.436Z,0
2018-02-15T05:23:07.262Z,0
2018-02-15T05:24:16.085Z,0
2018-02-15T05:25:25.014Z,0
2018-02-15T05:26:33.835Z,0
2018-02-15T05:27:42.663Z,0
2018-02-15T05:28:51.486Z,0
2018-02-15T05:30:00.318Z,0
2018-02-15T05:31:09.235Z,0
2018-02-15T05:32:18.062Z,0
2018-02-15T05:33:26.886Z,0
2018-02-15T05:34:35.714Z,0
2018-02-15T05:35:44.539Z,0
2018-02-15T05:36:53.363Z,0
2018-02-15T05:38:02.191Z,0
2018-02-15T05:39:11.020Z,0
2018-02-15T05:40:20.122Z,0
2018-02-15T05:41:29.499Z,0
2018-02-15T05:42:38.328Z,0
2018-02-15T05:43:47.429Z,0
2018-02-15T05:44:56.257Z,0
2018-02-15T05:46:05.085Z,0
2018-02-15T05:47:13.909Z,0
2018-02-15T05:48:23.134Z,0
2018-02-15T05:49:31.958Z,0
2018-02-15T05:50:40.782Z,0
2018-02-15T05:51:49.622Z,0
2018-02-15T05:52:58.435Z,0
2018-02-15T05:54:07.561Z,0
2018-02-15T05:55:16.387Z,0
2018-02-15T05:56:25.214Z,0
2018-02-15T05:57:34.038Z,0
2018-02-15T05:58:43.149Z,0
2018-02-15T05:59:52.250Z,0
2018-02-15T06:01:01.078Z,0
2018-02-15T06:02:09.903Z,0
2018-02-15T06:03:18.728Z,0
2018-02-15T06:04:27.554Z,0
2018-02-15T06:05:36.533Z,0
2018-02-15T06:06:45.359Z,0
2018-02-15T06:07:54.183Z,0
2018-02-15T06:09:03.010Z,0
2018-02-15T06:10:11.835Z,0
2018-02-15T06:11:20.663Z,0
2018-02-15T06:12:29.483Z,0
2018-02-15T06:13:38.310Z,0
2018-02-15T06:14:47.134Z,0
2018-02-15T06:15:55.960Z,0
2018-02-15T06:17:05.116Z,0
2018-02-15T06:18:13.941Z,0
2018-02-15T06:19:22.778Z,0
2018-02-15T06:20:31.609Z,0
2018-02-15T06:21:40.431Z,0
2018-02-15T06:22:49.408Z,0
2018-02-15T06:23:58.518Z,0
2018-02-15T06:25:07.346Z,0
2018-02-15T06:26:16.177Z,0
2018-02-15T06:27:25.007Z,0
2018-02-15T06:28:33.981Z,0
2018-02-15T06:29:42.809Z,0
2018-02-15T06:30:51.908Z,0
2018-02-15T06:32:00.735Z,0
2018-02-15T06:33:09.562Z,0
2018-02-15T06:34:18.541Z,0
2018-02-15T06:35:27.363Z,0
2018-02-15T06:36:36.190Z,0
2018-02-15T06:37:45.017Z,0
2018-02-15T06:38:53.841Z,0
2018-02-15T06:40:03.096Z,0
2018-02-15T06:41:11.920Z,0
2018-02-15T06:42:20.746Z,0
2018-02-15T06:43:29.573Z,0
2018-02-15T06:44:38.397Z,0
2018-02-15T06:45:47.273Z,0
2018-02-15T06:46:56.106Z,0
2018-02-15T06:48:05.203Z,0
2018-02-15T06:49:14.028Z,0
2018-02-15T06:50:23.131Z,5
2018-02-15T06:51:32.114Z,5
2018-02-15T06:52:40.942Z,5
2018-02-15T06:53:49.764Z,5
2018-02-15T06:54:58.590Z,5
2018-02-15T06:56:07.414Z,5
2018-02-15T06:57:16.389Z,5
2018-02-15T06:58:25.216Z,5
2018-02-15T06:59:34.048Z,5
2018-02-15T07:00:42.868Z,5
2018-02-15T07:01:51.693Z,5
2018-02-15T07:03:00.619Z,5
2018-02-15T07:04:09.717Z,5
2018-02-15T07:05:18.545Z,10
2018-02-15T07:06:27.367Z,10
2018-02-15T07:07:36.195Z,10
2018-02-15T07:08:45.446Z,15
2018-02-15T07:09:54.270Z,15
2018-02-15T07:11:03.095Z,20
2018-02-15T07:12:11.921Z,20
2018-02-15T07:13:20.747Z,20
2018-02-15T07:14:29.574Z,15
2018-02-15T07:15:38.397Z,15
2018-02-15T07:16:47.499Z,15
2018-02-15T07:17:56.325Z,20
2018-02-15T07:19:05.152Z,20
2018-02-15T07:20:14.026Z,20
2018-02-15T07:21:22.852Z,20
2018-02-15T07:22:31.677Z,20
2018-02-15T07:23:40.501Z,20
2018-02-15T07:24:49.328Z,20
2018-02-15T07:25:58.159Z,25
2018-02-15T07:27:06.983Z,25
2018-02-15T07:28:15.809Z,25
2018-02-15T07:29:24.636Z,25
2018-02-15T07:30:33.463Z,30
2018-02-15T07:31:42.590Z,30
2018-02-15T07:32:51.418Z,30
2018-02-15T07:34:00.242Z,30
2018-02-15T07:35:09.349Z,30
2018-02-15T07:36:18.176Z,30
2018-02-15T07:37:27.106Z,30
2018-02-15T07:38:35.935Z,30
2018-02-15T07:39:44.763Z,30
2018-02-15T07:40:53.588Z,30
2018-02-15T07:42:02.412Z,30
2018-02-15T07:43:11.288Z,35
2018-02-15T07:44:20.116Z,35
2018-02-15T07:45:29.221Z,35
2018-02-15T07:46:38.050Z,35
2018-02-15T07:47:46.875Z,35
2018-02-15T07:48:55.701Z,35
2018-02-15T07:50:04.803Z,40
2018-02-15T07:51:13.627Z,40
2018-02-15T07:52:22.457Z,45
2018-02-15T07:53:31.281Z,45
2018-02-15T07:54:40.107Z,50
2018-02-15T07:55:48.933Z,55
2018-02-15T07:56:57.759Z,55
2018-02-15T07:58:06.586Z,60
2018-02-15T07:59:15.414Z,60
2018-02-15T08:00:24.290Z,60
2018-02-15T08:01:33.115Z,60
2018-02-15T08:02:41.942Z,60
2018-02-15T08:03:50.769Z,60
2018-02-15T08:04:59.594Z,60
2018-02-15T08:06:08.529Z,65
2018-02-15T08:07:17.632Z,70
2018-02-15T08:08:26.458Z,75
2018-02-15T08:09:35.284Z,80
2018-02-15T08:10:44.111Z,85
2018-02-15T08:11:53.035Z,85
2018-02-15T08:13:01.863Z,80
2018-02-15T08:14:10.686Z,80
2018-02-15T08:15:19.516Z,85
2018-02-15T08:16:28.340Z,90
2018-02-15T08:17:37.223Z,95
2018-02-15T08:18:46.319Z,100
2018-02-15T08:19:55.146Z,110
2018-02-15T08:21:03.974Z,115
2018-02-15T08:22:12.802Z,125
2018-02-15T08:23:21.828Z,125
2018-02-15T08:24:30.655Z,120
2018-02-15T08:25:39.482Z,120
2018-02-15T08:26:48.312Z,125
2018-02-15T08:27:57.136Z,120
2018-02-15T08:29:06.387Z,110
2018-02-15T08:30:15.217Z,100
2018-02-15T08:31:24.041Z,95
2018-02-15T08:32:33.142Z,100
2018-02-15T08:33:41.972Z,105
2018-02-15T08:34:50.849Z,105
2018-02-15T08:35:59.952Z,105
2018-02-15T08:37:08.781Z,110
2018-02-15T08:38:17.612Z,105
2018-02-15T08:39:26.437Z,100
2018-02-15T08:40:35.314Z,105
2018-02-15T08:41:44.142Z,110
2018-02-15T08:42:52.968Z,115
2018-02-15T08:44:01.796Z,115
2018-02-15T08:45:10.622Z,115
2018-02-15T08:46:19.599Z,120
2018-02-15T08:47:28.429Z,125
2018-02-15T08:48:37.256Z,135
2018-02-15T08:49:46.083Z,145
2018-02-15T08:50:54.911Z,145
2018-02-15T08:52:03.798Z,145
2018-02-15T08:53:12.616Z,140
2018-02-15T08:54:21.444Z,145
2018-02-15T08:55:30.269Z,145
2018-02-15T08:56:39.372Z,150
2018-02-15T08:57:48.301Z,160
2018-02-15T08:58:57.400Z,165
2018-02-15T09:00:06.229Z,160
2018-02-15T09:01:15.056Z,150
2018-02-15T09:02:23.884Z,140
2018-02-15T09:03:32.760Z,130
2018-02-15T09:04:41.589Z,115
2018-02-15T09:05:50.420Z,115
2018-02-15T09:06:59.248Z,120
2018-02-15T09:08:08.077Z,115
2018-02-15T09:09:17.205Z,110
2018-02-15T09:10:26.036Z,110
2018-02-15T09:11:34.865Z,115
2018-02-15T09:12:43.691Z,115
2018-02-15T09:13:52.520Z,120
2018-02-15T09:15:01.498Z,115
2018-02-15T09:16:10.326Z,110
2018-02-15T09:17:19.158Z,100
2018-02-15T09:18:27.986Z,100
2018-02-15T09:19:36.814Z,105
2018-02-15T09:20:46.071Z,115
2018-02-15T09:21:54.902Z,115
2018-02-15T09:23:03.733Z,110
2018-02-15T09:24:12.559Z,110
2018-02-15T09:25:21.386Z,130
2018-02-15T09:26:30.641Z,150
2018-02-15T09:27:39.469Z,160
2018-02-15T09:28:48.298Z,175
2018-02-15T09:29:57.125Z,180
2018-02-15T09:31:05.953Z,185
2018-02-15T09:32:14.881Z,180
2018-02-15T09:33:23.989Z,160
2018-02-15T09:34:32.814Z,150
2018-02-15T09:35:41.644Z,155
2018-02-15T09:36:50.473Z,165
2018-02-15T09:37:59.350Z,160
2018-02-15T09:39:08.180Z,155
2018-02-15T09:40:17.013Z,160
2018-02-15T09:41:25.837Z,150
2018-02-15T09:42:34.666Z,145
2018-02-15T09:43:43.596Z,155
2018-02-15T09:44:52.423Z,160
2018-02-15T09:46:01.250Z,160
2018-02-15T09:47:10.078Z,155
2018-02-15T09:48:18.904Z,150
2018-02-15T09:49:28.031Z,145
2018-02-15T09:50:36.857Z,145
2018-02-15T09:51:45.687Z,140
2018-02-15T09:52:54.513Z,135
2018-02-15T09:54:03.339Z,125
2018-02-15T09:55:12.315Z,130
2018-02-15T09:56:21.429Z,125
2018-02-15T09:57:30.257Z,135
2018-02-15T09:58:39.083Z,135
2018-02-15T09:59:47.910Z,135
2018-02-15T10:00:56.888Z,135
2018-02-15T10:02:05.716Z,125
2018-02-15T10:03:14.552Z,125
2018-02-15T10:04:23.653Z,130
2018-02-15T10:05:32.479Z,115
2018-02-15T10:06:41.307Z,120
2018-02-15T10:07:50.136Z,130
2018-02-15T10:08:58.962Z,135
2018-02-15T10:10:07.788Z,135
2018-02-15T10:11:16.617Z,140
2018-02-15T10:12:25.493Z,140
2018-02-15T10:13:34.597Z,125
2018-02-15T10:14:43.422Z,120
2018-02-15T10:15:52.250Z,125
2018-02-15T10:17:01.075Z,135
2018-02-15T10:18:09.899Z,135
2018-02-15T10:19:18.727Z,135
2018-02-15T10:20:27.554Z,150
2018-02-15T10:21:36.380Z,170
2018-02-15T10:22:45.211Z,175
2018-02-15T10:23:54.036Z,190
2018-02-15T10:25:02.868Z,210
2018-02-15T10:26:11.969Z,210
2018-02-15T10:27:20.796Z,195
2018-02-15T10:28:29.624Z,200
2018-02-15T10:29:38.503Z,200
2018-02-15T10:30:47.608Z,235
2018-02-15T10:31:56.436Z,220
2018-02-15T10:33:05.260Z,200
2018-02-15T10:34:14.366Z,175
2018-02-15T10:35:23.192Z,185
2018-02-15T10:36:32.020Z,170
2018-02-15T10:37:40.847Z,165
2018-02-15T10:38:49.674Z,155
2018-02-15T10:39:58.505Z,150
2018-02-15T10:41:07.430Z,130
2018-02-15T10:42:16.259Z,120
2018-02-15T10:43:25.365Z,115
2018-02-15T10:44:34.192Z,105
2018-02-15T10:45:43.018Z,105
2018-02-15T10:46:52.144Z,115
2018-02-15T10:48:00.973Z,105
2018-02-15T10:49:09.798Z,100
2018-02-15T10:50:18.624Z,115
2018-02-15T10:51:27.451Z,115
2018-02-15T10:52:36.276Z,115
2018-02-15T10:53:45.104Z,105
2018-02-15T10:54:53.948Z,110
2018-02-15T10:56:02.774Z,100
2018-02-15T10:57:11.602Z,110
2018-02-15T10:58:21.030Z,100
2018-02-15T10:59:29.855Z,100
2018-02-15T11:00:38.705Z,105
2018-02-15T11:01:47.814Z,115
2018-02-15T11:02:57.138Z,130
2018-02-15T11:04:06.208Z,165
2018-02-15T11:05:15.089Z,155
2018-02-15T11:06:24.752Z,150
2018-02-15T11:07:35.539Z,130
2018-02-15T11:08:45.107Z,115
2018-02-15T11:09:54.828Z,115
2018-02-15T11:11:04.189Z,130
2018-02-15T11:12:13.396Z,125
2018-02-15T11:13:22.538Z,100
2018-02-15T11:14:31.727Z,105
2018-02-15T11:15:40.921Z,115
2018-02-15T11:16:50.108Z,140
2018-02-15T11:18:00.447Z,150
2018-02-15T11:19:09.687Z,130
2018-02-15T11:20:19.960Z,105
2018-02-15T11:21:28.853Z,95
2018-02-15T11:22:37.707Z,85
2018-02-15T11:23:46.851Z,105
2018-02-15T11:24:56.586Z,115
2018-02-15T11:26:05.484Z,120
2018-02-15T11:27:14.825Z,110
2018-02-15T11:28:24.815Z,100
2018-02-15T11:29:34.157Z,105
2018-02-15T11:30:43.072Z,110
2018-02-15T11:31:51.921Z,120
2018-02-15T11:33:01.360Z,135
2018-02-15T11:34:10.477Z,140
2018-02-15T11:35:19.530Z,135
2018-02-15T11:36:28.366Z,120
2018-02-15T11:37:37.269Z,90
2018-02-15T11:38:46.235Z,70
2018-02-15T11:39:55.232Z,70
2018-02-15T11:41:04.170Z,90
2018-02-15T11:42:13.569Z,135
2018-02-15T11:43:22.751Z,140
2018-02-15T11:44:31.992Z,155
2018-02-15T11:45:41.323Z,135
2018-02-15T11:46:50.971Z,145
2018-02-15T11:48:00.300Z,130
2018-02-15T11:49:09.400Z,95
2018-02-15T11:50:18.307Z,85
2018-02-15T11:51:27.162Z,90
2018-02-15T11:52:37.439Z,105
2018-02-15T11:53:47.168Z,100
2018-02-15T11:54:56.688Z,95
2018-02-15T11:56:05.569Z,140
2018-02-15T11:57:14.623Z,120
2018-02-15T11:58:23.755Z,110
2018-02-15T11:59:34.123Z,105
2018-02-15T12:00:43.914Z,95
2018-02-15T12:01:53.140Z,95
2018-02-15T12:03:01.996Z,90
2018-02-15T12:04:11.358Z,95
2018-02-15T12:05:20.496Z,135
2018-02-15T12:06:30.056Z,110
2018-02-15T12:07:39.902Z,90
2018-02-15T12:08:49.343Z,90
2018-02-15T12:10:01.155Z,75
2018-02-15T12:11:10.538Z,95
2018-02-15T12:12:19.663Z,115
2018-02-15T12:13:28.906Z,125
2018-02-15T12:14:37.939Z,105
2018-02-15T12:15:46.768Z,85
2018-02-15T12:16:55.663Z,75
2018-02-15T12:18:05.968Z,85
2018-02-15T12:19:15.554Z,95
2018-02-15T12:20:25.329Z,105
2018-02-15T12:21:34.323Z,110
2018-02-15T12:22:43.226Z,125
2018-02-15T12:23:53.187Z,100
2018-02-15T12:25:02.436Z,95
2018-02-15T12:26:11.647Z,80
2018-02-15T12:27:21.690Z,60
2018-02-15T12:28:30.534Z,60
2018-02-15T12:29:39.388Z,80
2018-02-15T12:30:48.498Z,105
2018-02-15T12:31:57.938Z,100
2018-02-15T12:33:07.342Z,110
2018-02-15T12:34:16.285Z,110
2018-02-15T12:35:25.218Z,90
2018-02-15T12:36:34.879Z,90
2018-02-15T12:37:44.350Z,105
2018-02-15T12:38:53.519Z,130
2018-02-15T12:40:02.905Z,130
2018-02-15T12:41:11.815Z,100
2018-02-15T12:42:21.264Z,80
2018-02-15T12:43:30.320Z,70
2018-02-15T12:44:39.833Z,90
2018-02-15T12:45:48.799Z,80
2018-02-15T12:46:58.131Z,65
2018-02-15T12:48:06.958Z,55
2018-02-15T12:49:16.544Z,55
2018-02-15T12:50:25.451Z,80
2018-02-15T12:51:34.517Z,100
2018-02-15T12:52:43.989Z,80
2018-02-15T12:54:22.893Z,60
2018-02-15T12:55:31.810Z,70
2018-02-15T12:56:41.147Z,95
2018-02-15T12:57:50.024Z,110
2018-02-15T12:58:58.891Z,125
2018-02-15T13:00:08.004Z,90
2018-02-15T13:01:16.871Z,70
2018-02-15T13:02:25.957Z,65
2018-02-15T13:03:35.140Z,60
2018-02-15T13:04:47.469Z,70
2018-02-15T13:05:56.872Z,90
2018-02-15T13:07:06.466Z,90
2018-02-15T13:08:15.778Z,85
2018-02-15T13:09:24.836Z,75
2018-02-15T13:10:34.334Z,65
2018-02-15T13:11:43.425Z,50
2018-02-15T13:12:53.233Z,55
2018-02-15T13:14:03.307Z,55
2018-02-15T13:15:12.390Z,70
2018-02-15T13:16:21.230Z,90
2018-02-15T13:17:30.064Z,110
2018-02-15T13:18:38.957Z,90
2018-02-15T13:19:47.796Z,70
2018-02-15T13:20:56.653Z,60
2018-02-15T13:22:05.759Z,60
2018-02-15T13:23:14.583Z,85
2018-02-15T13:24:23.412Z,145
2018-02-15T13:25:32.236Z,175
2018-02-15T13:26:41.064Z,145
2018-02-15T13:27:50.041Z,115
2018-02-15T13:28:58.867Z,95
2018-02-15T13:30:07.695Z,90
2018-02-15T13:31:16.522Z,115
2018-02-15T13:32:25.349Z,110
2018-02-15T13:33:34.175Z,105
2018-02-15T13:34:43.001Z,95
2018-02-15T13:35:51.828Z,90
2018-02-15T13:37:00.655Z,85
2018-02-15T13:38:09.480Z,90
2018-02-15T13:39:18.506Z,100
2018-02-15T13:40:27.336Z,110
2018-02-15T13:41:36.438Z,120
2018-02-15T13:42:45.265Z,110
2018-02-15T13:43:54.091Z,115
2018-02-15T13:45:02.976Z,150
2018-02-15T13:46:11.807Z,135
2018-02-15T13:47:20.632Z,130
2018-02-15T13:48:29.560Z,115
2018-02-15T13:49:38.387Z,110
2018-02-15T13:50:47.211Z,110
2018-02-15T13:51:56.040Z,110
2018-02-15T13:53:04.867Z,120
2018-02-15T13:54:13.719Z,125
2018-02-15T13:55:22.533Z,135
2018-02-15T13:56:31.410Z,150
2018-02-15T13:57:40.237Z,145
2018-02-15T13:58:49.073Z,125
2018-02-15T13:59:58.173Z,125
2018-02-15T14:01:07.275Z,135
2018-02-15T14:02:16.103Z,130
2018-02-15T14:03:24.938Z,115
2018-02-15T14:04:33.767Z,100
2018-02-15T14:05:42.870Z,95
2018-02-15T14:06:51.699Z,90
2018-02-15T14:08:00.526Z,90
2018-02-15T14:09:09.361Z,85
2018-02-15T14:10:18.185Z,85
2018-02-15T14:11:27.013Z,90
2018-02-15T14:12:35.841Z,90
2018-02-15T14:13:44.667Z,90
2018-02-15T14:14:53.496Z,85
2018-02-15T14:16:02.603Z,85
2018-02-15T14:17:11.436Z,85
2018-02-15T14:18:20.263Z,80
2018-02-15T14:19:29.090Z,80
2018-02-15T14:20:38.191Z,75
2018-02-15T14:21:47.019Z,80
2018-02-15T14:22:55.850Z,80
2018-02-15T14:24:04.710Z,85
2018-02-15T14:25:13.538Z,95
2018-02-15T14:26:22.368Z,100
2018-02-15T14:27:31.197Z,100
2018-02-15T14:28:40.295Z,90
2018-02-15T14:29:49.124Z,90
2018-02-15T14:30:57.958Z,80
2018-02-15T14:32:06.779Z,95
2018-02-15T14:33:15.608Z,95
2018-02-15T14:34:24.443Z,95
2018-02-15T14:35:33.274Z,95
2018-02-15T14:36:42.101Z,95
2018-02-15T14:37:50.926Z,100
2018-02-15T14:38:59.904Z,105
2018-02-15T14:40:08.731Z,90
2018-02-15T14:41:17.562Z,75
2018-02-15T14:42:26.389Z,65
2018-02-15T14:43:35.487Z,70
2018-02-15T14:44:44.366Z,75
2018-02-15T14:45:53.194Z,75
2018-02-15T14:47:02.021Z,75
2018-02-15T14:48:10.850Z,75
2018-02-15T14:49:19.689Z,65
2018-02-15T14:50:28.683Z,55
2018-02-15T14:51:37.795Z,55
2018-02-15T14:52:46.631Z,50
2018-02-15T14:53:55.473Z,50
2018-02-15T14:55:04.591Z,45
2018-02-15T14:56:13.518Z,45
2018-02-15T14:57:22.622Z,45
2018-02-15T14:58:31.449Z,45
2018-02-15T14:59:40.279Z,50
2018-02-15T15:00:49.383Z,55
2018-02-15T15:01:58.511Z,55
2018-02-15T15:03:07.610Z,50
2018-02-15T15:04:16.719Z,35
2018-02-15T15:05:25.560Z,25
2018-02-15T15:06:34.401Z,20
2018-02-15T15:07:43.391Z,25
2018-02-15T15:08:52.218Z,35
2018-02-15T15:10:01.048Z,30
2018-02-15T15:11:09.874Z,30
2018-02-15T15:12:18.701Z,30
2018-02-15T15:13:27.678Z,40
2018-02-15T15:14:36.506Z,35
2018-02-15T15:15:45.332Z,40
2018-02-15T15:16:54.712Z,45
2018-02-15T15:18:03.533Z,40
2018-02-15T15:19:12.412Z,35
2018-02-15T15:20:21.261Z,30
2018-02-15T15:21:30.072Z,35
2018-02-15T15:22:38.895Z,35
2018-02-15T15:23:47.720Z,30
2018-02-15T15:24:56.548Z,30
2018-02-15T15:26:05.379Z,25
2018-02-15T15:27:14.489Z,20
2018-02-15T15:28:23.700Z,25
2018-02-15T15:29:32.546Z,25
2018-02-15T15:30:41.408Z,25
2018-02-15T15:31:50.236Z,30
2018-02-15T15:32:59.347Z,30
2018-02-15T15:34:08.451Z,25
2018-02-15T15:35:17.276Z,20
2018-02-15T15:36:26.104Z,20
2018-02-15T15:37:34.930Z,20
2018-02-15T15:38:44.030Z,15
2018-02-15T15:39:52.860Z,15
2018-02-15T15:41:01.687Z,20
2018-02-15T15:42:10.512Z,15
2018-02-15T15:43:19.342Z,15
2018-02-15T15:44:28.170Z,15
2018-02-15T15:45:36.998Z,15
2018-02-15T15:46:45.827Z,20
2018-02-15T15:47:54.654Z,20
2018-02-15T15:49:03.779Z,20
2018-02-15T15:50:12.607Z,20
2018-02-15T15:51:21.432Z,15
2018-02-15T15:52:30.264Z,15
2018-02-15T15:53:39.186Z,15
2018-02-15T15:54:48.194Z,15
2018-02-15T15:55:57.026Z,10
2018-02-15T15:57:05.856Z,10
2018-02-15T15:58:14.682Z,15
2018-02-15T15:59:23.508Z,15
2018-02-15T16:00:32.335Z,15
2018-02-15T16:01:41.162Z,15
2018-02-15T16:02:49.990Z,15
2018-02-15T16:03:58.814Z,10
2018-02-15T16:05:07.640Z,15
2018-02-15T16:06:16.742Z,10
2018-02-15T16:07:25.571Z,10
2018-02-15T16:08:34.395Z,10
2018-02-15T16:09:43.226Z,5
2018-02-15T16:10:52.332Z,5
2018-02-15T16:12:01.159Z,5
2018-02-15T16:13:10.272Z,5
2018-02-15T16:14:19.102Z,5
2018-02-15T16:15:27.926Z,5
2018-02-15T16:16:36.753Z,5
2018-02-15T16:17:45.586Z,5
2018-02-15T16:18:54.412Z,5
2018-02-15T16:20:03.239Z,0
2018-02-15T16:21:12.068Z,0
2018-02-15T16:22:20.897Z,0
2018-02-15T16:23:29.721Z,0
2018-02-15T16:24:38.550Z,0
2018-02-15T16:25:47.663Z,0
2018-02-15T16:26:56.512Z,0
2018-02-15T16:28:05.345Z,0
2018-02-15T16:29:14.480Z,0
2018-02-15T16:30:23.369Z,0